Time;durP1;ratioP1;P1;durP2;ratioP2;P2;SDS_P1;SDS_P2;PMS_P1;PMS_P2;Temp;Humidity;BMP_temperature;BMP_pressure;BME280_temperature;BME280_humidity;BME280_pressure;Samples;Min_cycle;Max_cycle;Signal;HPM_P1;HPM_P2
2022/10/27 00:00:55;;;;;;;83.52;46.70;;;;;;;5.99;91.28;101114.50;1756314;81;27237;-66
2022/10/27 00:03:25;;;;;;;93.35;47.33;;;;;;;6.00;91.18;101120.16;1744585;81;25313;-66
2022/10/27 00:05:52;;;;;;;82.27;45.85;;;;;;;6.01;91.48;101120.97;1740187;81;25384;-66
2022/10/27 00:08:21;;;;;;;90.38;49.40;;;;;;;6.00;91.83;101122.85;1740286;81;25526;-66
2022/10/27 00:11:00;;;;;;;85.57;47.40;;;;;;;6.01;91.69;101125.00;1761950;81;25455;-66
2022/10/27 00:13:28;;;;;;;78.78;42.45;;;;;;;6.01;91.77;101127.68;1740393;81;27850;-67
2022/10/27 00:18:56;;;;;;;91.90;47.40;;;;;;;6.01;92.05;101106.20;1744530;81;25594;-65
2022/10/27 00:21:23;;;;;;;94.35;47.62;;;;;;;6.03;92.17;101113.45;1744606;82;25592;-65
2022/10/27 00:23:50;;;;;;;95.65;50.65;;;;;;;6.03;92.05;101111.59;1744707;82;25406;-65
2022/10/27 00:26:20;;;;;;;87.97;46.98;;;;;;;6.04;92.17;101120.45;1744746;82;27856;-65
2022/10/27 00:28:48;;;;;;;88.20;47.20;;;;;;;6.04;92.08;101113.74;1744699;82;25188;-67
2022/10/27 00:31:21;;;;;;;81.57;44.05;;;;;;;6.04;92.11;101117.23;1738560;82;25329;-66
2022/10/27 00:33:50;;;;;;;82.92;45.80;;;;;;;6.03;92.47;101110.25;1731790;82;26206;-67
2022/10/27 00:36:21;;;;;;;76.80;41.75;;;;;;;6.05;92.36;101110.00;1744793;82;25689;-66
2022/10/27 00:38:58;;;;;;;80.55;43.45;;;;;;;6.05;92.47;101114.83;1744288;81;27381;-66
2022/10/27 00:41:30;;;;;;;75.45;37.30;;;;;;;6.07;92.77;101128.80;1744596;82;25336;-67
2022/10/27 00:44:01;;;;;;;85.15;41.85;;;;;;;6.08;93.05;101126.92;1749353;81;25527;-66
2022/10/27 00:46:42;;;;;;;73.87;37.53;;;;;;;6.09;93.20;101124.52;1740367;81;26167;-67
2022/10/27 00:49:13;;;;;;;75.25;37.25;;;;;;;6.11;93.34;101137.15;1758203;81;25500;-67
2022/10/27 00:51:45;;;;;;;91.82;36.28;;;;;;;6.11;93.77;101140.67;1764073;81;27158;-67
2022/10/27 00:54:14;;;;;;;62.80;34.83;;;;;;;6.11;93.98;101137.98;1740193;81;25549;-67
2022/10/27 00:56:45;;;;;;;70.22;37.80;;;;;;;6.12;93.90;101130.18;1740284;81;25330;-67
2022/10/27 00:59:13;;;;;;;75.55;38.85;;;;;;;6.12;93.96;101130.72;1740181;81;25530;-67
2022/10/27 01:01:41;;;;;;;79.03;41.13;;;;;;;6.13;93.91;101125.09;1740575;81;25419;-67
2022/10/27 01:04:09;;;;;;;75.15;41.15;;;;;;;6.13;93.82;101120.23;1728733;81;29453;-67
2022/10/27 01:06:37;;;;;;;82.27;41.48;;;;;;;6.14;93.72;101126.70;1747226;80;25781;-67
2022/10/27 01:09:06;;;;;;;86.53;43.17;;;;;;;6.13;93.65;101126.44;1745774;81;25367;-67
2022/10/27 01:11:33;;;;;;;73.83;41.00;;;;;;;6.14;93.58;101120.52;1755449;81;25687;-67
2022/10/27 01:14:01;;;;;;;77.37;41.50;;;;;;;6.13;93.50;101122.41;1740257;81;25227;-67
2022/10/27 01:16:42;;;;;;;71.37;38.65;;;;;;;6.14;93.44;101130.72;1740347;81;27810;-67
2022/10/27 01:19:37;;;;;;;74.82;41.55;;;;;;;6.14;93.24;101132.61;1737675;81;25546;-66
2022/10/27 01:22:19;;;;;;;74.97;38.73;;;;;;;6.12;93.30;101125.35;1740311;81;25371;-66
2022/10/27 01:25:20;;;;;;;71.65;35.83;;;;;;;6.12;93.17;101123.47;1740229;81;26345;-66
2022/10/27 01:28:16;;;;;;;59.88;33.55;;;;;;;6.12;93.30;101126.70;1740375;81;25590;-66
2022/10/27 01:31:16;;;;;;;60.30;34.95;;;;;;;6.11;93.19;101126.41;1710710;82;30558;-66
2022/10/27 01:33:55;;;;;;;;;;;;;;;6.09;93.00;101118.61;1742499;82;25370;-67
2022/10/27 01:36:45;;;;;;;56.83;34.05;;;;;;;6.08;92.85;101125.58;1713195;82;25383;-66
2022/10/27 01:39:29;;;;;;;58.00;31.10;;;;;;;6.04;92.74;101123.94;1710391;82;25619;-67
2022/10/27 01:42:11;;;;;;;56.28;33.30;;;;;;;6.03;92.85;101124.20;1723050;82;25893;-67
2022/10/27 01:44:47;;;;;;;57.10;32.25;;;;;;;6.00;92.59;101118.02;1712858;82;27989;-66
2022/10/27 01:47:15;;;;;;;57.27;33.25;;;;;;;5.97;92.60;101117.45;1710686;82;25548;-66
2022/10/27 01:49:43;;;;;;;53.92;30.45;;;;;;;5.96;92.65;101122.56;1708488;82;25565;-66
2022/10/27 01:52:39;;;;;;;62.62;31.00;;;;;;;5.93;92.41;101116.33;1708410;82;25707;-65
2022/10/27 01:55:27;;;;;;;56.00;31.17;;;;;;;5.91;92.52;101117.12;1715274;82;25554;-66
2022/10/27 01:58:48;;;;;;;66.00;33.35;;;;;;;5.89;92.62;101116.58;1737909;82;27381;-67
2022/10/27 02:01:45;;;;;;;56.30;31.90;;;;;;;5.88;92.84;101115.48;1687745;84;25612;-66
2022/10/27 02:04:56;;;;;;;54.05;29.75;;;;;;;5.85;92.81;101116.80;1708571;82;25643;-66
2022/10/27 02:07:49;;;;;;;55.28;28.60;;;;;;;5.83;93.02;101120.27;1711584;82;25807;-67
2022/10/27 02:10:24;;;;;;;53.78;30.17;;;;;;;5.82;92.91;101119.19;1740588;82;25548;-67
2022/10/27 02:12:54;;;;;;;55.45;30.90;;;;;;;5.82;92.95;101125.90;1720132;82;27156;-66
2022/10/27 02:15:41;;;;;;;58.42;32.50;;;;;;;5.78;93.17;101122.38;1683240;83;25687;-66
2022/10/27 02:18:19;;;;;;;51.33;28.83;;;;;;;5.79;93.13;101117.84;1709884;83;25342;-66
2022/10/27 02:20:50;;;;;;;54.93;29.35;;;;;;;5.77;93.18;101123.47;1699614;83;25660;-67
2022/10/27 02:23:20;;;;;;;49.48;28.00;;;;;;;5.76;93.16;101128.55;1706858;83;25384;-66
2022/10/27 02:26:12;;;;;;;48.78;29.80;;;;;;;5.74;93.21;101136.05;1708529;82;26821;-66
2022/10/27 02:28:58;;;;;;;57.17;28.47;;;;;;;5.73;93.21;101133.08;1701738;82;25542;-65
2022/10/27 02:31:33;;;;;;;45.25;27.87;;;;;;;5.71;93.19;101137.89;1701745;82;25502;-66
2022/10/27 02:34:04;;;;;;;59.88;28.62;;;;;;;5.71;93.34;101137.09;1701763;83;25661;-67
2022/10/27 02:36:32;;;;;;;55.12;27.65;;;;;;;5.70;93.58;101142.17;1730866;82;25525;-67
2022/10/27 02:39:00;;;;;;;45.63;25.85;;;;;;;5.69;93.68;101136.55;1713337;82;27255;-66
2022/10/27 02:41:27;;;;;;;53.55;29.05;;;;;;;5.68;93.86;101138.95;1732515;81;25490;-66
2022/10/27 02:43:54;;;;;;;65.03;28.55;;;;;;;5.69;94.12;101145.41;1732595;81;25293;-66
2022/10/27 02:46:21;;;;;;;47.95;26.75;;;;;;;5.73;94.32;101147.04;1732486;81;25704;-66
2022/10/27 02:48:48;;;;;;;51.88;28.87;;;;;;;5.73;94.17;101148.38;1732595;81;25494;-66
2022/10/27 02:51:15;;;;;;;52.10;28.05;;;;;;;5.73;94.21;101144.36;1732547;81;27201;-66
2022/10/27 02:53:42;;;;;;;54.00;27.22;;;;;;;5.74;94.20;101149.47;1732412;81;25590;-66
2022/10/27 02:56:10;;;;;;;51.70;25.95;;;;;;;5.75;94.22;101147.59;1732594;81;25537;-66
2022/10/27 02:58:37;;;;;;;50.55;25.75;;;;;;;5.76;94.27;101149.22;1732461;81;25616;-66
2022/10/27 03:01:05;;;;;;;45.55;23.80;;;;;;;5.76;94.32;101145.19;1750542;81;25333;-66
2022/10/27 03:03:32;;;;;;;44.10;23.27;;;;;;;5.75;94.22;101150.27;1735296;81;26785;-66
2022/10/27 03:05:59;;;;;;;52.08;24.92;;;;;;;5.76;94.08;101154.59;1732552;81;25462;-66
2022/10/27 03:08:27;;;;;;;51.00;25.17;;;;;;;5.75;94.07;101150.27;1732532;81;25491;-66
2022/10/27 03:10:54;;;;;;;42.23;24.12;;;;;;;5.75;94.16;101152.95;1753976;81;26186;-66
2022/10/27 03:13:21;;;;;;;34.98;23.42;;;;;;;5.74;94.10;101155.38;1732532;81;25553;-66
2022/10/27 03:15:48;;;;;;;46.20;25.75;;;;;;;5.72;94.08;101152.95;1732606;81;27265;-66
2022/10/27 03:18:15;;;;;;;48.00;25.08;;;;;;;5.72;94.10;101151.61;1735462;81;27135;-66
2022/10/27 03:20:45;;;;;;;38.85;23.60;;;;;;;5.70;94.03;101161.77;1761645;81;25492;-66
2022/10/27 03:23:13;;;;;;;37.67;23.15;;;;;;;5.71;93.96;101163.40;1740103;81;25683;-66
2022/10/27 03:25:43;;;;;;;36.77;22.95;;;;;;;5.71;93.99;101162.59;1740138;81;25505;-66
2022/10/27 03:28:11;;;;;;;39.27;23.25;;;;;;;5.70;93.99;101166.34;1725731;81;27322;-66
2022/10/27 03:30:38;;;;;;;36.88;22.45;;;;;;;5.68;93.91;101171.95;1750712;81;25561;-66
2022/10/27 03:33:06;;;;;;;38.28;22.90;;;;;;;5.65;93.76;101163.61;1740063;81;25319;-66
2022/10/27 03:35:33;;;;;;;35.50;22.05;;;;;;;5.63;93.74;101167.88;1740108;81;25645;-66
2022/10/27 03:38:01;;;;;;;39.58;22.90;;;;;;;5.60;93.69;101174.58;1740038;81;25308;-66
2022/10/27 03:40:30;;;;;;;35.92;22.77;;;;;;;5.58;93.64;101172.69;1740147;81;27260;-67
2022/10/27 03:42:57;;;;;;;30.95;21.20;;;;;;;5.57;93.49;101174.28;1743955;81;25537;-67
2022/10/27 03:45:27;;;;;;;36.93;22.25;;;;;;;5.55;93.46;101175.87;1757165;81;25641;-67
2022/10/27 03:48:07;;;;;;;35.85;22.73;;;;;;;5.53;93.51;101170.47;1740229;81;28021;-67
2022/10/27 03:50:34;;;;;;;34.90;22.07;;;;;;;5.52;93.50;101175.58;1740218;81;25565;-67
2022/10/27 03:53:02;;;;;;;36.42;23.35;;;;;;;5.50;93.57;101166.44;1740069;81;27923;-67
2022/10/27 03:55:32;;;;;;;41.80;23.22;;;;;;;5.49;93.51;101163.46;1726976;81;25591;-67
2022/10/27 03:57:59;;;;;;;;;;;;;;;5.47;93.65;101158.88;1751189;81;25310;-67
2022/10/27 04:00:27;;;;;;;38.17;21.82;;;;;;;5.47;93.53;101160.23;1750090;81;25599;-67
2022/10/27 04:02:55;;;;;;;38.73;22.42;;;;;;;5.43;93.55;101159.09;1750984;81;25303;-67
2022/10/27 04:05:23;;;;;;;39.30;21.33;;;;;;;5.42;93.52;101160.17;1730785;81;27198;-67
2022/10/27 04:07:51;;;;;;;34.63;21.97;;;;;;;5.39;93.23;101158.80;1753058;81;25394;-66
2022/10/27 04:10:18;;;;;;;45.52;21.23;;;;;;;5.37;93.04;101165.48;1764667;81;25362;-66
2022/10/27 04:12:54;;;;;;;47.65;22.02;;;;;;;5.34;93.19;101170.02;1761532;81;25615;-66
2022/10/27 04:15:24;;;;;;;35.83;21.17;;;;;;;5.33;93.29;101179.94;1740150;81;25707;-66
2022/10/27 04:17:54;;;;;;;34.10;21.57;;;;;;;5.31;93.26;101179.90;1740045;81;27181;-65
2022/10/27 04:20:22;;;;;;;33.80;21.12;;;;;;;5.28;93.38;101177.20;1740260;81;25303;-65
2022/10/27 04:22:49;;;;;;;38.08;21.40;;;;;;;5.26;93.46;101172.63;1740070;81;25513;-65
2022/10/27 04:25:16;;;;;;;31.55;20.77;;;;;;;5.26;93.48;101180.67;1740135;81;25668;-65
2022/10/27 04:27:44;;;;;;;35.78;21.23;;;;;;;5.25;93.35;101188.43;1740091;81;25570;-65
2022/10/27 04:30:11;;;;;;;36.20;21.77;;;;;;;5.22;93.19;101183.02;1740155;81;27194;-65
2022/10/27 04:32:38;;;;;;;45.85;21.17;;;;;;;5.22;93.18;101186.25;1739996;81;25522;-65
2022/10/27 04:35:08;;;;;;;35.33;20.52;;;;;;;5.20;93.25;101183.01;1740157;81;25606;-65
2022/10/27 04:37:35;;;;;;;34.13;21.82;;;;;;;5.16;93.37;101185.39;1761647;81;25664;-65
2022/10/27 04:40:03;;;;;;;53.02;25.00;;;;;;;5.13;93.34;101177.03;1740134;81;25277;-65
2022/10/27 04:42:30;;;;;;;38.42;22.05;;;;;;;5.11;93.46;101185.33;1740065;81;27232;-65
2022/10/27 04:44:57;;;;;;;31.75;20.60;;;;;;;5.09;93.63;101180.75;1740039;81;25497;-65
2022/10/27 04:47:24;;;;;;;52.33;22.30;;;;;;;5.09;93.59;101184.77;1740114;81;25510;-65
2022/10/27 04:49:51;;;;;;;33.13;21.70;;;;;;;5.09;93.64;101183.94;1766959;81;25591;-65
2022/10/27 04:52:19;;;;;;;32.60;20.95;;;;;;;5.05;93.52;101188.45;1755916;81;25487;-65
2022/10/27 04:54:46;;;;;;;36.28;22.52;;;;;;;5.06;93.57;101185.27;1740230;81;27181;-65
2022/10/27 04:57:13;;;;;;;28.20;20.37;;;;;;;5.06;93.64;101178.56;1740151;81;25528;-66
2022/10/27 04:59:40;;;;;;;31.85;20.62;;;;;;;5.02;93.51;101178.25;1740253;81;25551;-66
2022/10/27 05:02:07;;;;;;;30.95;20.20;;;;;;;5.02;93.39;101179.59;1740203;81;25603;-66
2022/10/27 05:04:35;;;;;;;32.88;21.12;;;;;;;5.02;93.59;101183.62;1740252;81;25307;-67
2022/10/27 05:07:02;;;;;;;31.73;21.12;;;;;;;5.00;93.61;101184.38;1766985;81;27256;-66
2022/10/27 05:09:29;;;;;;;40.55;20.72;;;;;;;4.99;93.67;101189.48;1754609;81;25447;-66
2022/10/27 05:11:56;;;;;;;29.63;19.95;;;;;;;4.96;93.40;101199.35;1743287;81;25362;-66
2022/10/27 05:14:23;;;;;;;31.60;20.17;;;;;;;4.95;93.46;101192.36;1763794;81;27754;-66
2022/10/27 05:16:50;;;;;;;35.10;21.15;;;;;;;4.93;93.62;101190.45;1755228;81;25510;-65
2022/10/27 05:19:18;;;;;;;29.98;20.08;;;;;;;4.93;93.71;101197.16;1765089;80;27251;-65
2022/10/27 05:21:45;;;;;;;31.45;20.15;;;;;;;4.92;93.68;101194.22;1770415;81;25286;-67
2022/10/27 05:24:12;;;;;;;30.15;20.35;;;;;;;4.91;93.74;101193.92;1768556;80;25525;-65
2022/10/27 05:26:39;;;;;;;30.57;20.00;;;;;;;4.92;93.81;101206.28;1754446;80;25605;-66
2022/10/27 05:29:07;;;;;;;32.25;20.62;;;;;;;4.92;93.87;101206.79;1746004;81;25311;-66
2022/10/27 05:31:34;;;;;;;30.23;20.40;;;;;;;4.92;93.98;101209.47;1768106;81;27181;-66
2022/10/27 05:34:01;;;;;;;32.03;19.42;;;;;;;4.92;93.77;101209.47;1768394;81;25777;-65
2022/10/27 05:36:28;;;;;;;30.37;19.55;;;;;;;4.90;93.39;101211.05;1757237;81;25384;-66
2022/10/27 05:38:55;;;;;;;34.53;20.68;;;;;;;4.89;93.44;101207.28;1768580;80;25631;-66
2022/10/27 05:41:22;;;;;;;27.52;19.52;;;;;;;4.90;93.39;101214.28;1766892;80;25333;-65
2022/10/27 05:43:49;;;;;;;31.85;20.97;;;;;;;4.88;93.37;101216.41;1768682;81;27178;-66
2022/10/27 05:46:16;;;;;;;35.20;21.48;;;;;;;4.88;93.36;101213.72;1768674;81;25317;-66
2022/10/27 05:48:43;;;;;;;34.43;22.10;;;;;;;4.86;93.39;101215.30;1770596;80;25436;-66
2022/10/27 05:51:11;;;;;;;34.75;22.17;;;;;;;4.86;93.53;101220.67;1768612;81;25550;-66
2022/10/27 05:53:38;;;;;;;33.73;22.10;;;;;;;4.86;93.70;101225.48;1770483;80;25343;-66
2022/10/27 05:56:06;;;;;;;32.25;21.57;;;;;;;4.86;93.77;101224.15;1770559;81;27897;-66
2022/10/27 05:58:33;;;;;;;36.05;23.77;;;;;;;4.88;93.98;101225.25;1768528;81;25529;-67
2022/10/27 06:01:01;;;;;;;34.67;23.55;;;;;;;4.90;93.96;101233.84;1770482;81;25373;-67
2022/10/27 06:03:28;;;;;;;32.73;21.97;;;;;;;4.92;94.08;101237.63;1770430;81;27730;-67
2022/10/27 06:05:56;;;;;;;32.28;21.97;;;;;;;4.94;94.33;101239.02;1770596;81;25458;-68
2022/10/27 06:08:23;;;;;;;36.45;22.37;;;;;;;4.97;94.53;101244.39;1769176;81;27175;-66
2022/10/27 06:10:50;;;;;;;33.35;22.02;;;;;;;5.01;94.79;101239.64;1761408;81;27119;-66
2022/10/27 06:13:18;;;;;;;35.28;21.37;;;;;;;5.05;94.96;101246.11;1770479;81;25522;-66
2022/10/27 06:15:45;;;;;;;34.85;21.97;;;;;;;5.09;95.13;101245.11;1763741;81;25603;-65
2022/10/27 06:18:12;;;;;;;33.33;21.87;;;;;;;5.15;95.27;101252.69;1770437;81;25309;-67
2022/10/27 06:20:42;;;;;;;36.23;21.48;;;;;;;5.19;95.35;101253.80;1762293;81;27238;-67
2022/10/27 06:23:09;;;;;;;31.50;21.52;;;;;;;5.26;95.61;101261.16;1759559;81;25523;-65
2022/10/27 06:25:36;;;;;;;33.38;21.97;;;;;;;5.33;96.01;101268.48;1770540;81;25350;-65
2022/10/27 06:28:05;;;;;;;36.10;22.70;;;;;;;5.41;96.20;101269.38;1757290;81;25575;-67
2022/10/27 06:30:32;;;;;;;33.75;24.05;;;;;;;5.50;96.73;101271.09;1751546;81;25528;-66
2022/10/27 06:32:59;;;;;;;36.65;22.58;;;;;;;5.55;96.68;101265.78;1755084;81;27184;-66
2022/10/27 06:35:26;;;;;;;34.23;22.62;;;;;;;5.61;96.90;101270.13;1770442;80;27224;-66
2022/10/27 06:37:53;;;;;;;36.25;23.67;;;;;;;5.68;96.90;101262.42;1765883;81;25369;-66
2022/10/27 06:40:21;;;;;;;39.15;25.02;;;;;;;5.74;97.42;101266.80;1761492;81;25591;-66
2022/10/27 06:42:49;;;;;;;40.05;26.52;;;;;;;5.86;97.87;101262.08;1761430;81;25483;-66
2022/10/27 06:45:17;;;;;;;46.37;26.60;;;;;;;5.95;98.25;101263.77;1766530;81;27255;-65
2022/10/27 06:47:45;;;;;;;38.83;26.23;;;;;;;6.02;98.08;101270.31;1770266;81;25507;-66
2022/10/27 06:50:12;;;;;;;42.30;26.90;;;;;;;6.10;98.48;101273.89;1757655;81;25360;-65
2022/10/27 06:52:39;;;;;;;40.85;26.62;;;;;;;6.22;98.95;101275.87;1747787;81;25668;-66
2022/10/27 06:55:08;;;;;;;40.10;26.75;;;;;;;6.32;99.16;101278.64;1768230;81;25501;-66
2022/10/27 06:57:40;;;;;;;;;;;;;;;6.46;100.00;101278.22;1773040;81;27228;-65
2022/10/27 07:00:09;;;;;;;37.98;25.37;;;;;;;6.56;99.65;101285.55;1755509;80;25451;-66
2022/10/27 07:02:37;;;;;;;42.33;27.48;;;;;;;6.60;99.40;101281.27;1751999;81;25463;-67
2022/10/27 07:05:07;;;;;;;38.30;25.92;;;;;;;6.70;99.39;101286.17;1763256;81;25602;-68
2022/10/27 07:07:35;;;;;;;;;;;;;;;6.80;99.60;101281.95;1771952;79;25623;-67
2022/10/27 07:10:06;;;;;;;42.38;27.20;;;;;;;6.90;99.85;101288.73;1752535;81;27242;-71
2022/10/27 07:12:34;;;;;;;40.83;27.65;;;;;;;6.94;99.28;101282.30;1739793;81;25544;-68
2022/10/27 07:15:01;;;;;;;41.65;27.22;;;;;;;7.02;99.18;101288.55;1753371;79;25643;-69
2022/10/27 07:17:29;;;;;;;41.85;27.50;;;;;;;7.08;99.61;101285.63;1749076;79;25658;-69
2022/10/27 07:19:56;;;;;;;46.28;29.90;;;;;;;7.22;100.00;101292.69;1739811;81;25589;-67
2022/10/27 07:22:24;;;;;;;45.33;30.48;;;;;;;7.31;100.00;101290.30;1739838;81;27776;-68
2022/10/27 07:24:51;;;;;;;43.70;29.35;;;;;;;7.40;100.00;101291.40;1747738;81;25383;-68
2022/10/27 07:27:18;;;;;;;46.33;30.68;;;;;;;7.46;99.82;101293.59;1770262;80;25353;-68
2022/10/27 07:29:48;;;;;;;44.35;29.07;;;;;;;7.56;100.00;101299.53;1767553;79;26525;-69
2022/10/27 07:32:15;;;;;;;42.70;29.42;;;;;;;7.69;100.00;101309.81;1763282;79;25439;-69
2022/10/27 07:34:42;;;;;;;42.20;28.45;;;;;;;7.77;100.00;101309.31;1768252;81;27158;-69
2022/10/27 07:37:09;;;;;;;46.88;29.77;;;;;;;7.86;100.00;101314.44;1767065;81;25581;-69
2022/10/27 07:39:36;;;;;;;47.27;30.85;;;;;;;7.95;100.00;101316.62;1745100;81;25619;-69
2022/10/27 07:42:03;;;;;;;47.98;30.02;;;;;;;8.04;100.00;101309.10;1739460;81;25617;-69
2022/10/27 07:44:31;;;;;;;58.17;35.45;;;;;;;8.13;100.00;101311.28;1763868;81;25603;-68
2022/10/27 07:46:58;;;;;;;43.98;30.10;;;;;;;8.27;100.00;101307.52;1754285;81;27178;-69
2022/10/27 07:49:25;;;;;;;43.70;29.70;;;;;;;8.37;100.00;101306.17;1768848;81;25602;-68
2022/10/27 07:51:52;;;;;;;47.58;29.98;;;;;;;8.46;100.00;101307.82;1751772;81;25509;-67
2022/10/27 07:54:19;;;;;;;48.85;31.30;;;;;;;8.57;100.00;101312.14;1760639;81;27802;-67
2022/10/27 07:56:49;;;;;;;43.40;30.62;;;;;;;8.68;100.00;101308.89;1763454;81;25524;-67
2022/10/27 07:59:16;;;;;;;66.22;35.58;;;;;;;8.81;100.00;101313.73;1759072;81;27246;-68
2022/10/27 08:01:43;;;;;;;44.18;31.50;;;;;;;8.97;100.00;101312.64;1765345;81;25579;-67
2022/10/27 08:04:10;;;;;;;47.50;31.80;;;;;;;9.16;100.00;101319.61;1756860;81;25295;-67
2022/10/27 08:06:38;;;;;;;45.88;31.93;;;;;;;9.38;100.00;101326.58;1751404;81;25719;-67
2022/10/27 08:09:05;;;;;;;45.90;30.88;;;;;;;9.58;100.00;101332.42;1770367;81;25405;-67
2022/10/27 08:11:32;;;;;;;44.42;30.60;;;;;;;9.71;100.00;101330.47;1754884;81;28242;-67
2022/10/27 08:13:59;;;;;;;43.13;28.05;;;;;;;9.83;100.00;101332.05;1739449;81;25552;-67
2022/10/27 08:16:26;;;;;;;43.95;29.85;;;;;;;9.95;99.80;101333.06;1752268;81;25554;-67
2022/10/27 08:18:53;;;;;;;42.45;27.20;;;;;;;10.17;100.00;101334.02;1747606;81;25667;-67
2022/10/27 08:21:22;;;;;;;42.70;26.62;;;;;;;10.49;100.00;101327.30;1747672;81;25770;-67
2022/10/27 08:23:49;;;;;;;44.05;28.07;;;;;;;10.90;100.00;101334.53;1760701;81;27230;-67
2022/10/27 08:26:16;;;;;;;43.52;27.67;;;;;;;11.22;100.00;101333.13;1749709;80;25819;-67
2022/10/27 08:28:43;;;;;;;51.45;28.05;;;;;;;11.44;100.00;101329.91;1757842;80;25577;-67
2022/10/27 08:31:11;;;;;;;42.20;27.62;;;;;;;11.63;100.00;101337.24;1753774;81;25572;-66
2022/10/27 08:33:38;;;;;;;44.95;27.15;;;;;;;11.82;100.00;101335.94;1750836;81;25315;-68
2022/10/27 08:36:06;;;;;;;39.42;26.30;;;;;;;12.05;100.00;101328.85;1766206;81;29422;-65
2022/10/27 08:38:34;;;;;;;43.50;26.37;;;;;;;12.65;100.00;101328.18;1763440;81;25558;-69
2022/10/27 08:41:22;;;;;;;39.65;26.85;;;;;;;13.54;100.00;101338.53;1719842;82;25627;-67
2022/10/27 08:44:33;;;;;;;41.28;26.27;;;;;;;14.33;100.00;101330.52;1764035;81;25732;-67
2022/10/27 08:47:09;;;;;;;37.23;25.37;;;;;;;15.25;100.00;101330.88;1750170;81;25281;-66
2022/10/27 08:49:47;;;;;;;39.98;24.07;;;;;;;16.16;100.00;101334.55;1741775;81;27718;-67
2022/10/27 08:52:38;;;;;;;32.43;20.80;;;;;;;16.98;98.81;101331.85;1758843;81;25509;-67
2022/10/27 08:55:35;;;;;;;28.40;20.00;;;;;;;17.79;95.14;101342.27;1745813;81;25500;-67
2022/10/27 08:58:19;;;;;;;30.37;19.23;;;;;;;18.62;91.94;101344.75;1766666;81;25452;-68
2022/10/27 09:00:54;;;;;;;29.30;21.10;;;;;;;19.48;88.50;101341.34;1706060;83;25704;-66
2022/10/27 09:03:54;;;;;;;29.25;19.55;;;;;;;20.14;85.33;101342.14;1718821;83;27284;-68
2022/10/27 09:06:39;;;;;;;28.00;19.37;;;;;;;20.68;82.84;101344.44;1709789;83;27172;-68
2022/10/27 09:09:54;;;;;;;24.75;18.27;;;;;;;21.29;80.00;101345.17;1717318;83;25862;-68
2022/10/27 09:12:32;;;;;;;24.40;17.95;;;;;;;21.86;77.63;101342.14;1719469;83;25664;-67
2022/10/27 09:15:33;;;;;;;22.98;17.50;;;;;;;22.42;74.72;101345.87;1718734;83;25579;-68
2022/10/27 09:18:12;;;;;;;25.95;16.75;;;;;;;22.87;73.84;101346.30;1631748;87;27467;-67
2022/10/27 09:20:54;;;;;;;21.65;16.50;;;;;;;23.42;71.51;101346.02;1687975;84;25385;-65
2022/10/27 09:23:42;;;;;;;28.45;18.02;;;;;;;23.77;69.51;101344.36;1688383;84;25663;-65
2022/10/27 09:26:11;;;;;;;23.18;16.62;;;;;;;24.13;67.88;101337.14;1689120;84;25675;-65
2022/10/27 09:28:51;;;;;;;20.73;15.77;;;;;;;24.51;64.60;101340.12;1694333;84;25645;-66
2022/10/27 09:31:35;;;;;;;19.87;15.38;;;;;;;24.94;65.63;101338.37;1719175;83;29311;-66
2022/10/27 09:34:16;;;;;;;22.32;14.90;;;;;;;25.42;63.96;101349.45;1719259;83;25647;-66
2022/10/27 09:36:44;;;;;;;18.80;15.65;;;;;;;25.86;61.10;101344.37;1711238;81;25569;-67
2022/10/27 09:39:11;;;;;;;17.25;14.65;;;;;;;26.38;60.62;101343.38;1734252;81;25834;-67
2022/10/27 09:41:38;;;;;;;21.17;14.58;;;;;;;26.91;59.38;101343.28;1761655;81;25496;-67
2022/10/27 09:44:18;;;;;;;17.20;13.05;;;;;;;27.43;57.30;101336.73;1762653;81;29310;-69
2022/10/27 09:46:54;;;;;;;20.40;13.22;;;;;;;27.92;55.80;101332.81;1743223;81;25599;-68
2022/10/27 09:49:35;;;;;;;14.70;11.75;;;;;;;28.27;54.11;101333.85;1744389;81;25457;-68
2022/10/27 09:52:17;;;;;;;20.88;12.93;;;;;;;28.49;52.89;101330.34;1759520;81;25589;-68
2022/10/27 09:54:56;;;;;;;21.90;13.95;;;;;;;28.86;51.48;101329.69;1762501;81;25509;-67
2022/10/27 09:57:33;;;;;;;23.35;14.55;;;;;;;29.28;50.93;101324.77;1750993;81;27198;-66
2022/10/27 10:00:20;;;;;;;17.23;13.32;;;;;;;29.73;50.37;101326.05;1762608;80;25543;-68
2022/10/27 10:03:04;;;;;;;23.83;13.75;;;;;;;30.07;49.59;101325.25;1750851;81;25510;-66
2022/10/27 10:05:34;;;;;;;18.30;11.97;;;;;;;30.07;47.56;101317.69;1755245;81;25609;-67
2022/10/27 10:08:25;;;;;;;18.85;13.05;;;;;;;30.04;47.18;101319.92;1727806;82;25165;-67
2022/10/27 10:10:59;;;;;;;17.50;12.03;;;;;;;30.11;47.16;101317.02;1732362;81;27834;-68
2022/10/27 10:13:30;;;;;;;17.27;12.10;;;;;;;30.36;46.22;101320.11;1732332;81;25560;-68
2022/10/27 10:16:09;;;;;;;16.37;11.22;;;;;;;30.50;45.04;101319.09;1734237;81;26421;-68
2022/10/27 10:18:39;;;;;;;16.50;11.55;;;;;;;30.81;44.91;101319.78;1743381;81;26425;-68
2022/10/27 10:21:11;;;;;;;14.90;11.63;;;;;;;30.87;43.81;101320.08;1738706;80;25348;-69
2022/10/27 10:23:50;;;;;;;15.68;11.28;;;;;;;30.87;43.45;101325.66;1757216;81;27183;-69
2022/10/27 10:26:22;;;;;;;16.93;10.93;;;;;;;31.20;43.66;101318.34;1745977;81;25537;-68
2022/10/27 10:28:53;;;;;;;13.38;10.35;;;;;;;31.74;43.43;101324.91;1708324;81;25606;-67
2022/10/27 10:31:25;;;;;;;14.00;9.68;;;;;;;31.91;42.02;101324.34;1747444;81;26151;-68
2022/10/27 10:34:03;;;;;;;13.40;9.65;;;;;;;32.02;41.90;101322.90;1763634;81;25510;-68
2022/10/27 10:36:37;;;;;;;11.70;9.63;;;;;;;32.32;41.39;101309.88;1769272;81;27962;-69
2022/10/27 10:39:24;;;;;;;69.03;64.50;;;;;;;32.66;40.55;101317.10;1751020;81;25513;-68
2022/10/27 10:42:16;;;;;;;66.90;62.60;;;;;;;32.79;39.56;101310.16;1692620;83;25660;-68
2022/10/27 10:44:44;;;;;;;64.22;60.08;;;;;;;32.90;39.29;101315.52;1769058;81;25673;-68
2022/10/27 10:47:25;;;;;;;62.83;58.90;;;;;;;32.76;38.55;101307.64;1770447;80;25595;-69
2022/10/27 10:50:00;;;;;;;57.62;53.78;;;;;;;32.43;38.59;101301.22;1769240;81;27176;-70
2022/10/27 10:52:37;;;;;;;65.22;61.02;;;;;;;32.19;38.72;101306.96;1749152;81;25622;-70
2022/10/27 10:55:18;;;;;;;;;;;;;;;31.71;38.74;101310.41;1765677;81;25492;-70
2022/10/27 10:57:47;;;;;;;66.25;62.08;;;;;;;31.28;39.10;101310.00;1758709;81;26135;-67
2022/10/27 11:00:18;;;;;;;67.08;62.53;;;;;;;31.00;39.15;101317.51;1770298;81;25548;-68
2022/10/27 11:03:05;;;;;;;12.82;11.95;;;;;;;30.35;38.25;101314.30;1745324;79;27250;-69
2022/10/27 11:05:35;;;;;;;72.10;66.87;;;;;;;29.70;39.27;101306.78;1711377;82;25527;-70
2022/10/27 11:08:05;;;;;;;71.00;66.02;;;;;;;29.49;39.64;101311.20;1720777;82;25592;-70
2022/10/27 11:10:37;;;;;;;72.20;67.10;;;;;;;29.20;40.47;101309.52;1742021;81;26458;-70
2022/10/27 11:13:12;;;;;;;74.75;69.70;;;;;;;28.93;40.33;101308.54;1766700;80;25509;-71
2022/10/27 11:15:59;;;;;;;71.62;66.85;;;;;;;28.69;40.18;101309.75;1745582;81;27443;-70
2022/10/27 11:18:53;;;;;;;73.47;68.83;;;;;;;28.13;40.94;101313.26;1766027;81;25595;-70
2022/10/27 11:21:35;;;;;;;73.37;68.28;;;;;;;27.73;42.01;101304.27;1728800;81;26079;-70
2022/10/27 11:24:19;;;;;;;76.67;71.67;;;;;;;27.24;41.88;101312.12;1700855;82;38754;-69
2022/10/27 11:27:01;;;;;;;77.20;72.12;;;;;;;27.13;42.04;101314.92;1716355;82;25621;-71
2022/10/27 11:29:58;;;;;;;78.22;72.78;;;;;;;27.03;42.92;101308.97;1712910;82;27179;-69
2022/10/27 11:32:51;;;;;;;75.52;70.45;;;;;;;26.71;42.77;101307.58;1727823;82;25518;-71
2022/10/27 11:35:45;;;;;;;73.45;68.25;;;;;;;26.34;43.36;101291.26;1709751;82;25362;-72
2022/10/27 11:38:38;;;;;;;75.40;70.20;;;;;;;26.39;43.35;101299.19;1727696;82;26225;-70
2022/10/27 11:41:20;;;;;;;77.92;72.25;;;;;;;26.18;44.10;101293.80;1727383;82;25570;-70
2022/10/27 11:44:22;;;;;;;76.77;71.35;;;;;;;26.11;44.29;101295.78;1680389;83;27365;-70